Time;durP1;ratioP1;P1;durP2;ratioP2;P2;SDS_P1;SDS_P2;PMS_P1;PMS_P2;Temp;Humidity;BMP_temperature;BMP_pressure;BME280_temperature;BME280_humidity;BME280_pressure;Samples;Min_cycle;Max_cycle;Signal;HPM_P1;HPM_P2
2023/06/26 00:02:16;;;;;;;7.70;7.00;;;23.60;99.90;;;;;;5025476;28;20037;-79
2023/06/26 00:04:43;;;;;;;7.72;7.03;;;23.60;99.90;;;;;;5045956;28;20392;-80
2023/06/26 00:07:09;;;;;;;8.85;7.43;;;23.70;99.90;;;;;;5030956;28;20037;-81
2023/06/26 00:09:35;;;;;;;8.30;7.50;;;23.60;99.90;;;;;;5034957;28;20137;-79
2023/06/26 00:12:01;;;;;;;7.22;6.53;;;23.70;99.90;;;;;;5045458;28;20294;-78
2023/06/26 00:14:27;;;;;;;8.02;7.32;;;23.60;99.90;;;;;;5042032;28;20045;-78
2023/06/26 00:16:53;;;;;;;7.47;6.65;;;23.60;99.90;;;;;;5028585;28;20370;-78
2023/06/26 00:19:19;;;;;;;7.80;7.00;;;23.60;99.90;;;;;;5016765;28;20095;-79
2023/06/26 00:21:47;;;;;;;8.90;8.00;;;23.70;99.90;;;;;;5035724;28;20412;-81
2023/06/26 00:24:17;;;;;;;7.20;6.50;;;23.60;99.90;;;;;;5037564;28;20128;-80
2023/06/26 00:26:45;;;;;;;7.57;6.88;;;23.60;99.90;;;;;;5005809;28;20045;-79
2023/06/26 00:29:11;;;;;;;8.57;7.57;;;23.60;99.90;;;;;;5052928;28;20668;-80
2023/06/26 00:31:37;;;;;;;8.18;7.47;;;23.60;99.90;;;;;;5035761;28;20041;-79
2023/06/26 00:34:03;;;;;;;7.72;7.03;;;23.50;99.90;;;;;;4997992;28;20043;-79
2023/06/26 00:36:29;;;;;;;8.57;7.65;;;23.50;99.90;;;;;;5014314;28;20124;-80
2023/06/26 00:38:55;;;;;;;8.27;7.47;;;23.50;99.90;;;;;;5014457;28;20444;-80
2023/06/26 00:41:20;;;;;;;9.32;8.05;;;23.50;99.90;;;;;;5019562;28;20060;-81
2023/06/26 00:43:46;;;;;;;8.93;8.02;;;23.50;99.90;;;;;;5050226;28;20035;-79
2023/06/26 00:46:15;;;;;;;9.27;8.38;;;23.40;99.90;;;;;;5047283;28;20172;-80
2023/06/26 00:48:43;;;;;;;9.70;8.73;;;23.40;99.90;;;;;;4998627;28;20045;-80
2023/06/26 00:51:09;;;;;;;8.93;8.13;;;23.40;99.90;;;;;;5038246;28;20464;-79
2023/06/26 00:53:35;;;;;;;9.30;8.40;;;23.30;99.90;;;;;;5030528;28;20057;-80
2023/06/26 00:56:04;;;;;;;9.02;8.13;;;23.40;99.90;;;;;;5017205;28;20124;-79
2023/06/26 00:58:30;;;;;;;8.80;7.78;;;23.40;99.90;;;;;;5052195;28;20120;-80
2023/06/26 01:00:56;;;;;;;8.73;7.90;;;23.30;99.90;;;;;;5035323;28;20144;-79
2023/06/26 01:03:25;;;;;;;9.05;8.15;;;23.30;99.90;;;;;;5033903;28;20041;-80
2023/06/26 01:05:54;;;;;;;9.70;8.70;;;23.30;99.90;;;;;;5039784;28;20049;-77
2023/06/26 01:08:20;;;;;;;8.70;7.90;;;23.30;99.90;;;;;;5036331;28;20094;-77
2023/06/26 01:10:46;;;;;;;9.30;8.40;;;23.20;99.90;;;;;;5056811;28;20492;-79
2023/06/26 01:13:15;;;;;;;9.35;8.50;;;23.20;99.90;;;;;;5036195;28;20044;-80
2023/06/26 01:15:40;;;;;;;9.30;8.35;;;23.20;99.90;;;;;;5033012;28;20037;-79
2023/06/26 01:18:06;;;;;;;9.25;8.35;;;23.10;99.90;;;;;;5041148;28;20060;-80
2023/06/26 01:20:42;;;;;;;9.95;8.95;;;23.10;99.90;;;;;;5024648;28;20040;-80
2023/06/26 01:23:14;;;;;;;10.00;9.00;;;23.10;99.90;;;;;;5040675;28;20100;-80
2023/06/26 01:26:07;;;;;;;9.52;8.63;;;23.00;99.90;;;;;;5053137;28;20482;-80
2023/06/26 01:28:40;;;;;;;9.07;8.18;;;23.00;99.90;;;;;;5060332;28;20048;-78
2023/06/26 01:31:07;;;;;;;10.23;9.25;;;22.90;99.90;;;;;;5057515;28;20040;-79
2023/06/26 01:33:33;;;;;;;10.20;9.30;;;22.90;99.90;;;;;;5050159;28;20045;-80
2023/06/26 01:35:59;;;;;;;9.82;9.02;;;22.80;99.90;;;;;;5037538;28;20600;-79
2023/06/26 01:38:25;;;;;;;10.10;9.13;;;22.80;99.90;;;;;;5051012;28;20047;-80
2023/06/26 01:40:52;;;;;;;10.25;9.25;;;22.80;99.90;;;;;;5051701;28;20429;-80
2023/06/26 01:43:39;;;;;;;9.57;8.68;;;22.70;99.90;;;;;;5034458;28;20028;-80
2023/06/26 01:46:09;;;;;;;10.00;8.80;;;22.70;99.90;;;;;;5035481;28;20505;-80
2023/06/26 01:48:45;;;;;;;9.77;8.82;;;22.70;99.90;;;;;;5050194;28;20136;-79
2023/06/26 01:51:12;;;;;;;9.85;8.95;;;22.70;99.90;;;;;;5033403;28;20401;-80
2023/06/26 01:53:41;;;;;;;8.80;7.95;;;22.70;99.90;;;;;;5022791;28;20083;-81
2023/06/26 01:56:12;;;;;;;9.88;8.95;;;22.70;99.90;;;;;;5033583;28;20044;-81
2023/06/26 01:58:43;;;;;;;10.68;9.23;;;22.70;99.90;;;;;;5017831;28;20084;-81
2023/06/26 02:01:09;;;;;;;10.40;9.40;;;22.60;99.90;;;;;;5034331;28;20067;-81
2023/06/26 02:03:35;;;;;;;10.52;9.50;;;22.60;99.90;;;;;;5033098;28;20049;-79
2023/06/26 02:06:01;;;;;;;9.98;9.07;;;22.50;99.90;;;;;;5017653;28;20358;-79
2023/06/26 02:08:26;;;;;;;10.50;9.50;;;22.50;99.90;;;;;;5032245;28;20052;-78
2023/06/26 02:10:52;;;;;;;10.82;9.18;;;22.40;99.90;;;;;;5017607;28;20098;-79
2023/06/26 02:13:18;;;;;;;10.45;9.15;;;22.40;99.90;;;;;;5033483;28;20043;-79
2023/06/26 02:15:43;;;;;;;9.57;8.60;;;22.40;99.90;;;;;;5039769;28;20139;-79
2023/06/26 02:18:10;;;;;;;9.98;9.07;;;22.30;99.90;;;;;;5028488;28;20029;-79
2023/06/26 02:20:35;;;;;;;9.80;8.90;;;22.30;99.90;;;;;;5020011;28;20060;-79
2023/06/26 02:23:01;;;;;;;11.65;10.55;;;22.30;99.90;;;;;;5052883;28;20051;-79
2023/06/26 02:25:27;;;;;;;10.82;9.73;;;22.20;99.90;;;;;;5067731;28;20045;-78
2023/06/26 02:27:53;;;;;;;10.48;9.48;;;22.20;99.90;;;;;;5052963;28;20124;-79
2023/06/26 02:30:19;;;;;;;10.25;9.35;;;22.10;99.90;;;;;;4999876;28;20048;-79
2023/06/26 02:32:45;;;;;;;10.27;9.27;;;22.10;99.90;;;;;;5035638;28;20044;-80
2023/06/26 02:35:11;;;;;;;9.98;8.98;;;22.10;99.90;;;;;;5060863;28;20056;-80
2023/06/26 02:37:36;;;;;;;10.52;9.52;;;22.10;99.90;;;;;;5044773;28;20041;-81
2023/06/26 02:40:03;;;;;;;10.30;9.25;;;22.00;99.90;;;;;;5016311;28;20045;-80
2023/06/26 02:42:31;;;;;;;10.27;9.23;;;22.00;99.90;;;;;;5015124;28;20083;-80
2023/06/26 02:44:57;;;;;;;10.88;9.77;;;22.00;99.90;;;;;;5049700;28;20052;-80
2023/06/26 02:47:22;;;;;;;10.18;9.27;;;21.90;99.90;;;;;;5056014;28;20040;-80
2023/06/26 02:49:48;;;;;;;10.20;9.30;;;21.90;99.90;;;;;;5020494;28;20075;-80
2023/06/26 02:52:14;;;;;;;10.98;9.88;;;21.90;99.90;;;;;;5033542;28;20045;-80
2023/06/26 02:54:39;;;;;;;10.55;9.52;;;21.80;99.90;;;;;;5016417;28;20151;-80
2023/06/26 02:57:05;;;;;;;10.65;9.65;;;21.80;99.90;;;;;;5015983;28;20086;-81
2023/06/26 02:59:33;;;;;;;10.35;9.38;;;21.70;99.90;;;;;;5007602;28;20127;-82
2023/06/26 03:01:59;;;;;;;10.90;9.80;;;21.70;99.90;;;;;;5052819;28;20044;-82
2023/06/26 03:04:24;;;;;;;10.60;9.60;;;21.70;99.90;;;;;;5033520;28;20089;-82
2023/06/26 03:06:50;;;;;;;10.32;9.32;;;21.80;99.90;;;;;;5042937;28;20036;-82
2023/06/26 03:09:22;;;;;;;10.45;9.48;;;21.70;99.90;;;;;;5047373;28;20477;-82
2023/06/26 03:11:52;;;;;;;10.10;9.10;;;21.70;99.90;;;;;;5016346;28;20097;-80
2023/06/26 03:14:18;;;;;;;8.98;8.18;;;22.00;99.90;;;;;;5048310;28;20419;-80
2023/06/26 03:16:46;;;;;;;11.25;10.18;;;21.70;99.90;;;;;;5021957;28;20038;-80
2023/06/26 03:19:12;;;;;;;11.57;10.18;;;21.70;99.90;;;;;;5050239;28;20045;-80
2023/06/26 03:21:41;;;;;;;11.27;10.18;;;21.60;99.90;;;;;;5041408;28;20052;-80
2023/06/26 03:24:06;;;;;;;10.50;9.30;;;21.70;99.90;;;;;;5034252;28;20477;-80
2023/06/26 03:26:32;;;;;;;10.05;9.15;;;21.70;99.90;;;;;;5047987;28;20245;-80
2023/06/26 03:28:58;;;;;;;10.65;9.55;;;21.70;99.90;;;;;;5047089;28;20410;-81
2023/06/26 03:31:24;;;;;;;10.68;9.68;;;21.70;99.90;;;;;;5032911;28;20055;-80
2023/06/26 03:33:53;;;;;;;10.65;9.65;;;21.70;99.90;;;;;;5037307;28;20040;-80
2023/06/26 03:36:19;;;;;;;10.85;9.85;;;21.70;99.90;;;;;;5049394;28;20044;-80
2023/06/26 03:38:46;;;;;;;10.23;9.23;;;22.00;99.90;;;;;;5049283;28;20366;-80
2023/06/26 03:41:14;;;;;;;10.30;9.30;;;21.50;99.90;;;;;;5035859;28;20123;-81
2023/06/26 03:43:40;;;;;;;9.65;8.65;;;21.80;99.90;;;;;;5031941;28;20124;-81
2023/06/26 03:46:09;;;;;;;10.48;9.20;;;21.60;99.90;;;;;;5037362;28;20128;-81
2023/06/26 03:48:35;;;;;;;10.32;9.32;;;21.90;99.90;;;;;;5030933;28;20041;-82
2023/06/26 03:51:02;;;;;;;10.27;9.38;;;21.90;99.90;;;;;;5032025;28;20044;-80
2023/06/26 03:53:28;;;;;;;10.00;9.10;;;21.90;99.90;;;;;;5032233;28;20048;-81
2023/06/26 03:55:54;;;;;;;10.25;9.25;;;22.00;99.90;;;;;;5015606;28;20037;-81
2023/06/26 03:58:22;;;;;;;9.30;8.40;;;21.90;99.90;;;;;;5031716;28;20033;-80
2023/06/26 04:01:06;;;;;;;10.45;8.85;;;22.00;99.90;;;;;;5045071;28;20094;-80
2023/06/26 04:03:41;;;;;;;10.30;9.05;;;21.90;99.90;;;;;;5038792;28;20097;-80
2023/06/26 04:06:09;;;;;;;12.25;9.30;;;22.00;99.90;;;;;;5051224;28;20037;-79
2023/06/26 04:08:35;;;;;;;12.40;9.45;;;21.90;99.90;;;;;;5048537;28;20056;-79
2023/06/26 04:11:01;;;;;;;10.27;9.18;;;22.00;99.90;;;;;;5046276;28;20042;-80
2023/06/26 04:13:27;;;;;;;10.27;9.27;;;21.90;99.90;;;;;;5043714;28;20453;-79
2023/06/26 04:15:55;;;;;;;10.05;9.13;;;21.90;99.90;;;;;;5051020;28;20093;-79
2023/06/26 04:18:21;;;;;;;10.70;9.40;;;21.90;99.90;;;;;;5052928;28;20728;-79
2023/06/26 04:21:11;;;;;;;9.43;8.48;;;21.80;99.90;;;;;;5055831;28;20068;-79
2023/06/26 04:23:38;;;;;;;9.88;8.88;;;21.70;99.90;;;;;;5024693;28;20045;-79
2023/06/26 04:26:05;;;;;;;10.52;8.73;;;21.80;99.90;;;;;;5050290;28;20550;-79
2023/06/26 04:28:35;;;;;;;9.75;8.85;;;21.70;99.90;;;;;;5021630;28;20048;-79
2023/06/26 04:31:03;;;;;;;11.00;9.88;;;21.10;99.90;;;;;;5040986;28;20131;-80
2023/06/26 04:33:29;;;;;;;9.65;8.75;;;21.70;99.90;;;;;;5044005;28;20384;-80
2023/06/26 04:35:55;;;;;;;10.13;9.07;;;21.80;99.90;;;;;;5040262;28;20139;-79
2023/06/26 04:38:21;;;;;;;10.52;9.43;;;21.80;99.90;;;;;;5048551;28;20127;-80
2023/06/26 04:40:48;;;;;;;11.70;9.60;;;22.00;99.90;;;;;;5065883;28;20345;-79
2023/06/26 04:43:14;;;;;;;11.45;9.40;;;22.10;99.90;;;;;;5033320;28;20397;-79
2023/06/26 04:45:42;;;;;;;11.75;9.57;;;22.10;99.90;;;;;;5018922;28;20045;-79
2023/06/26 04:48:09;;;;;;;11.45;8.93;;;22.10;99.90;;;;;;5026656;28;20044;-78
2023/06/26 04:50:35;;;;;;;10.43;9.07;;;22.30;99.90;;;;;;5027033;28;20477;-79
2023/06/26 04:53:03;;;;;;;10.25;9.30;;;22.30;99.90;;;;;;5037302;28;20047;-79
2023/06/26 04:55:30;;;;;;;12.20;8.68;;;22.40;99.90;;;;;;5063143;28;20045;-79
2023/06/26 04:57:56;;;;;;;12.00;8.63;;;22.60;99.90;;;;;;5034853;28;20032;-78
2023/06/26 05:00:22;;;;;;;10.18;8.90;;;22.60;99.90;;;;;;5046931;28;20044;-80
2023/06/26 05:02:48;;;;;;;9.25;8.35;;;22.60;99.90;;;;;;5035961;28;20443;-81
2023/06/26 05:05:14;;;;;;;12.70;8.95;;;22.50;99.90;;;;;;5031365;28;20036;-81
2023/06/26 05:07:41;;;;;;;10.63;8.25;;;22.50;99.90;;;;;;5032847;28;20036;-81
2023/06/26 05:10:07;;;;;;;11.77;8.35;;;22.40;99.90;;;;;;5067268;28;20044;-81
2023/06/26 05:12:33;;;;;;;10.98;8.30;;;22.60;99.90;;;;;;5000307;28;20048;-81
2023/06/26 05:15:03;;;;;;;13.98;8.52;;;22.50;99.90;;;;;;5013654;28;20446;-82
2023/06/26 05:17:28;;;;;;;11.63;8.88;;;22.50;99.90;;;;;;5046121;28;20032;-79
2023/06/26 05:19:54;;;;;;;11.55;8.15;;;22.30;99.90;;;;;;5014137;28;20045;-80
2023/06/26 05:22:20;;;;;;;12.55;8.88;;;22.30;99.90;;;;;;5022399;28;20052;-80
2023/06/26 05:24:47;;;;;;;12.88;8.90;;;22.20;99.90;;;;;;5050701;28;20517;-81
2023/06/26 05:27:20;;;;;;;15.23;8.95;;;22.20;99.90;;;;;;5022619;28;20041;-80
2023/06/26 05:29:46;;;;;;;11.97;8.43;;;22.00;99.90;;;;;;5010902;28;20095;-81
2023/06/26 05:32:18;;;;;;;13.70;8.88;;;22.00;99.90;;;;;;5036949;28;20049;-85
2023/06/26 05:34:50;;;;;;;10.65;8.73;;;21.90;99.90;;;;;;5048648;28;20047;-84
2023/06/26 05:37:21;;;;;;;18.02;10.48;;;21.80;99.90;;;;;;5010959;28;20041;-82
2023/06/26 05:39:47;;;;;;;18.83;9.82;;;21.80;99.90;;;;;;5040808;28;20051;-81
2023/06/26 05:42:13;;;;;;;14.95;10.05;;;21.40;99.90;;;;;;5028688;28;20060;-82
2023/06/26 05:44:39;;;;;;;14.63;8.80;;;21.30;99.90;;;;;;5034151;28;20614;-82
2023/06/26 05:47:05;;;;;;;12.02;8.40;;;21.20;99.90;;;;;;5017021;28;20173;-82
2023/06/26 05:49:31;;;;;;;12.75;8.23;;;21.00;99.90;;;;;;5033438;28;20048;-84
2023/06/26 05:51:57;;;;;;;12.27;7.03;;;20.80;99.90;;;;;;5040662;28;20086;-81
2023/06/26 05:54:24;;;;;;;13.15;6.40;;;20.60;99.90;;;;;;5033629;28;20389;-83
2023/06/26 05:56:56;;;;;;;13.43;5.88;;;20.50;99.90;;;;;;5034568;28;20451;-82
2023/06/26 05:59:23;;;;;;;9.65;6.00;;;20.40;99.90;;;;;;5047010;28;20558;-83
2023/06/26 06:01:48;;;;;;;10.57;5.93;;;20.50;99.90;;;;;;5032535;28;20045;-80
2023/06/26 06:04:14;;;;;;;9.50;6.28;;;20.50;99.90;;;;;;5014077;28;20062;-82
2023/06/26 06:06:40;;;;;;;11.93;5.95;;;20.40;99.90;;;;;;5048226;28;20037;-82
2023/06/26 06:09:05;;;;;;;11.30;5.95;;;20.40;99.90;;;;;;5011767;28;20095;-82
2023/06/26 06:11:31;;;;;;;9.45;5.68;;;20.40;99.90;;;;;;5033232;28;20473;-81
2023/06/26 06:13:58;;;;;;;10.82;5.47;;;20.30;99.90;;;;;;5036686;28;20045;-82
2023/06/26 06:16:24;;;;;;;9.70;5.53;;;20.40;99.90;;;;;;5032485;28;20120;-83
2023/06/26 06:18:50;;;;;;;12.15;4.38;;;20.50;99.90;;;;;;5049703;28;20461;-81
2023/06/26 06:21:15;;;;;;;12.18;4.47;;;20.60;99.90;;;;;;5019359;28;20046;-82
2023/06/26 06:23:41;;;;;;;10.35;4.63;;;20.80;99.90;;;;;;5021357;28;20037;-81
2023/06/26 06:26:07;;;;;;;11.25;4.40;;;20.80;99.90;;;;;;5029156;28;20453;-80
2023/06/26 06:28:33;;;;;;;13.73;5.00;;;20.80;99.90;;;;;;5028822;28;20040;-80
2023/06/26 06:30:59;;;;;;;10.07;4.15;;;20.80;99.90;;;;;;5014280;28;20140;-81
2023/06/26 06:33:24;;;;;;;12.73;4.43;;;20.70;99.90;;;;;;5032930;28;20140;-82
2023/06/26 06:35:50;;;;;;;7.97;3.90;;;21.00;99.90;;;;;;4999799;28;20040;-83
2023/06/26 06:38:16;;;;;;;12.93;4.00;;;21.10;99.90;;;;;;5015327;28;20080;-83
2023/06/26 06:40:41;;;;;;;11.05;3.60;;;21.00;99.90;;;;;;4992127;28;20049;-81
2023/06/26 06:43:07;;;;;;;9.98;4.00;;;20.90;99.90;;;;;;5016647;28;20080;-80
2023/06/26 06:45:33;;;;;;;9.82;3.70;;;21.20;99.90;;;;;;5016137;28;20025;-82
2023/06/26 06:47:58;;;;;;;6.90;2.88;;;21.30;99.90;;;;;;5049212;28;20106;-81
2023/06/26 06:50:24;;;;;;;8.70;3.38;;;21.30;99.90;;;;;;5030875;28;20037;-80
2023/06/26 06:52:50;;;;;;;9.57;3.83;;;21.30;99.90;;;;;;5016020;28;20060;-81
2023/06/26 06:55:15;;;;;;;9.13;2.97;;;21.50;99.90;;;;;;5015945;28;20102;-80
2023/06/26 06:57:44;;;;;;;7.50;3.25;;;21.80;99.90;;;;;;5032929;28;20037;-77
2023/06/26 07:00:13;;;;;;;7.15;3.25;;;21.70;99.90;;;;;;5030521;28;20051;-78
2023/06/26 07:02:42;;;;;;;9.60;2.75;;;22.00;99.90;;;;;;5046112;28;20041;-75
2023/06/26 07:05:09;;;;;;;8.32;2.53;;;22.00;99.90;;;;;;5030226;28;20065;-80
2023/06/26 07:07:36;;;;;;;8.77;2.97;;;22.10;99.90;;;;;;5015035;28;20076;-76
2023/06/26 07:10:07;;;;;;;6.70;2.60;;;22.10;99.90;;;;;;5050639;28;20120;-79
2023/06/26 07:12:34;;;;;;;7.35;3.08;;;22.20;99.90;;;;;;5033709;28;20469;-77
2023/06/26 07:15:00;;;;;;;9.55;2.88;;;22.20;99.90;;;;;;5034990;28;20041;-77
2023/06/26 07:17:27;;;;;;;11.30;3.22;;;22.20;99.90;;;;;;5032484;28;20037;-77
2023/06/26 07:19:53;;;;;;;10.35;2.88;;;22.50;99.90;;;;;;4998269;28;20033;-77
2023/06/26 07:22:20;;;;;;;5.28;2.42;;;22.50;99.90;;;;;;5033144;28;20052;-76
2023/06/26 07:24:47;;;;;;;4.93;2.28;;;22.30;99.90;;;;;;5049242;28;20546;-81
2023/06/26 07:27:20;;;;;;;7.20;2.20;;;22.60;99.90;;;;;;5048661;28;20037;-76
2023/06/26 07:29:46;;;;;;;8.80;2.15;;;22.50;99.90;;;;;;5031204;28;20045;-81
2023/06/26 07:32:12;;;;;;;3.53;2.00;;;22.60;99.90;;;;;;5046141;28;20044;-78
2023/06/26 07:34:37;;;;;;;4.50;1.95;;;22.30;99.90;;;;;;5028246;28;20036;-79
2023/06/26 07:37:03;;;;;;;6.78;2.05;;;22.40;99.90;;;;;;5031369;28;20575;-76
2023/06/26 07:39:29;;;;;;;4.40;2.10;;;22.60;99.90;;;;;;5047883;28;20107;-80
2023/06/26 07:41:55;;;;;;;9.50;2.75;;;22.50;99.90;;;;;;5031045;28;20119;-76
2023/06/26 07:44:22;;;;;;;3.33;1.85;;;22.20;99.90;;;;;;5025222;28;20539;-77
2023/06/26 07:46:47;;;;;;;5.32;1.88;;;22.30;99.90;;;;;;5046179;28;20045;-75
2023/06/26 07:49:13;;;;;;;5.78;2.10;;;22.30;99.90;;;;;;5027675;28;21754;-77
2023/06/26 07:51:39;;;;;;;4.40;1.92;;;22.40;99.90;;;;;;5028976;28;20462;-77
2023/06/26 07:54:05;;;;;;;8.70;2.15;;;22.80;99.90;;;;;;5043851;28;20375;-78
2023/06/26 07:56:30;;;;;;;10.75;2.35;;;22.80;99.90;;;;;;5014231;28;20040;-79
2023/06/26 07:58:57;;;;;;;5.43;2.20;;;22.30;99.90;;;;;;5046753;28;20048;-75
2023/06/26 08:01:24;;;;;;;4.38;1.98;;;22.30;99.90;;;;;;5014989;28;20041;-79
2023/06/26 08:03:49;;;;;;;5.55;1.90;;;22.40;99.90;;;;;;5046531;28;20048;-76
2023/06/26 08:06:15;;;;;;;5.72;1.80;;;22.00;99.90;;;;;;5052524;28;20037;-78
2023/06/26 08:08:41;;;;;;;5.88;1.80;;;22.10;99.90;;;;;;5045213;28;20036;-77
2023/06/26 08:11:07;;;;;;;7.15;2.00;;;22.10;99.90;;;;;;5047623;28;20041;-78
2023/06/26 08:13:32;;;;;;;3.67;1.60;;;22.40;99.90;;;;;;5012802;28;20041;-76
2023/06/26 08:15:58;;;;;;;3.00;1.70;;;22.00;99.90;;;;;;5013982;28;20033;-75
2023/06/26 08:18:24;;;;;;;8.13;2.03;;;22.20;99.90;;;;;;4997396;28;20045;-79
2023/06/26 08:20:50;;;;;;;4.97;1.80;;;22.40;99.90;;;;;;5022221;28;20064;-79
2023/06/26 08:23:15;;;;;;;4.40;1.73;;;22.40;99.90;;;;;;5043994;28;20053;-76
2023/06/26 08:25:41;;;;;;;4.43;1.98;;;22.50;99.90;;;;;;5026611;28;20527;-78
2023/06/26 08:28:07;;;;;;;6.82;2.00;;;22.30;99.90;;;;;;5027861;28;20025;-77
2023/06/26 08:30:32;;;;;;;4.68;2.17;;;22.60;99.90;;;;;;5012001;28;20167;-77
2023/06/26 08:32:58;;;;;;;9.52;2.75;;;22.40;99.90;;;;;;5063737;28;20124;-78
2023/06/26 08:35:24;;;;;;;7.57;1.70;;;22.40;99.90;;;;;;5048374;28;20044;-77
2023/06/26 08:37:50;;;;;;;2.97;1.60;;;21.90;99.90;;;;;;5018779;28;20036;-79
2023/06/26 08:40:20;;;;;;;5.32;2.10;;;22.40;99.90;;;;;;5015881;28;20044;-76
2023/06/26 08:42:46;;;;;;;3.83;2.00;;;22.70;99.90;;;;;;5036261;28;20040;-79
2023/06/26 08:45:12;;;;;;;5.57;2.20;;;22.90;99.90;;;;;;5037039;28;20112;-78
2023/06/26 08:47:40;;;;;;;4.72;2.30;;;22.90;99.90;;;;;;5038253;28;20657;-76
2023/06/26 08:50:12;;;;;;;7.88;2.10;;;23.10;99.90;;;;;;5032978;28;20144;-76
2023/06/26 08:53:04;;;;;;;4.90;1.95;;;23.40;99.90;;;;;;5044423;28;20055;-77
2023/06/26 08:55:33;;;;;;;3.05;1.77;;;22.90;99.90;;;;;;5040365;28;20077;-77
2023/06/26 08:57:59;;;;;;;16.63;2.40;;;22.90;99.90;;;;;;5044157;28;20129;-78
2023/06/26 09:00:25;;;;;;;5.90;2.20;;;22.90;99.90;;;;;;5013536;28;20052;-79
2023/06/26 09:02:51;;;;;;;6.78;2.08;;;23.40;99.90;;;;;;5029801;28;20408;-77
2023/06/26 09:05:17;;;;;;;4.95;2.13;;;23.40;99.90;;;;;;5044109;28;20124;-79
2023/06/26 09:07:43;;;;;;;4.65;2.45;;;22.90;99.90;;;;;;5029557;28;20044;-80
2023/06/26 09:10:09;;;;;;;3.33;1.95;;;22.20;99.90;;;;;;5013983;28;20037;-80
2023/06/26 09:12:36;;;;;;;4.72;2.35;;;22.50;99.90;;;;;;5029254;28;20041;-78
2023/06/26 09:15:03;;;;;;;3.90;2.10;;;22.70;99.90;;;;;;5030259;28;20053;-79
2023/06/26 09:17:38;;;;;;;4.00;2.10;;;22.70;99.90;;;;;;5046141;28;20048;-78
2023/06/26 09:20:04;;;;;;;3.38;2.03;;;23.00;99.90;;;;;;5049426;28;20037;-78
2023/06/26 09:22:35;;;;;;;4.22;1.80;;;23.80;99.90;;;;;;5033479;28;20485;-80
2023/06/26 09:25:02;;;;;;;4.70;2.17;;;24.50;99.90;;;;;;5050270;28;20043;-78
2023/06/26 09:27:27;;;;;;;5.68;2.30;;;24.50;99.90;;;;;;5009723;28;20391;-78
2023/06/26 09:29:53;;;;;;;4.00;2.35;;;24.20;99.90;;;;;;5031746;28;20041;-77
2023/06/26 09:32:19;;;;;;;5.40;2.28;;;24.10;99.90;;;;;;5050725;28;20056;-76
2023/06/26 09:34:45;;;;;;;5.43;2.00;;;24.10;99.90;;;;;;5033472;28;20393;-76
2023/06/26 09:37:14;;;;;;;5.70;2.35;;;23.80;99.90;;;;;;5017272;28;20447;-79
2023/06/26 09:39:39;;;;;;;4.35;2.00;;;24.40;99.90;;;;;;5030169;28;20455;-77
2023/06/26 09:42:06;;;;;;;3.83;2.00;;;25.00;99.90;;;;;;5031143;28;20028;-78
2023/06/26 09:44:33;;;;;;;5.60;1.80;;;24.30;99.90;;;;;;5032069;28;20044;-78
2023/06/26 09:47:01;;;;;;;6.32;2.30;;;23.60;99.90;;;;;;5029985;28;20033;-78
2023/06/26 09:49:27;;;;;;;7.70;2.28;;;23.10;99.90;;;;;;5046990;28;20124;-80
2023/06/26 09:51:53;;;;;;;7.10;2.53;;;22.90;99.90;;;;;;5032987;28;20124;-75
2023/06/26 09:54:22;;;;;;;5.05;2.40;;;23.10;99.90;;;;;;5033206;28;20166;-76
2023/06/26 09:56:47;;;;;;;4.78;2.40;;;24.20;99.90;;;;;;5047511;28;20037;-76
2023/06/26 09:59:13;;;;;;;6.25;2.30;;;24.20;99.90;;;;;;5048244;28;20364;-77
2023/06/26 10:01:45;;;;;;;3.42;2.05;;;24.80;99.90;;;;;;5047674;28;20135;-74
2023/06/26 10:04:11;;;;;;;6.47;2.20;;;25.60;99.90;;;;;;5050125;28;20143;-75
2023/06/26 10:06:50;;;;;;;5.68;2.70;;;25.00;99.90;;;;;;5038374;28;20877;-74
2023/06/26 10:09:18;;;;;;;5.72;2.40;;;24.80;99.90;;;;;;5049184;28;20044;-73
2023/06/26 10:12:20;;;;;;;3.97;2.05;;;25.00;99.90;;;;;;5019992;28;20044;-76
2023/06/26 10:14:46;;;;;;;2.75;2.08;;;24.40;99.90;;;;;;5014129;28;20380;-79
2023/06/26 10:17:16;;;;;;;2.90;2.00;;;24.90;99.90;;;;;;5031826;28;20048;-77
2023/06/26 10:19:45;;;;;;;2.92;2.10;;;25.60;99.90;;;;;;5045598;28;20048;-75
2023/06/26 10:22:15;;;;;;;3.40;2.38;;;24.70;99.90;;;;;;5016096;28;20065;-77
2023/06/26 10:24:42;;;;;;;4.00;2.50;;;24.30;99.90;;;;;;5048788;28;20053;-75
2023/06/26 10:27:17;;;;;;;3.53;2.10;;;25.10;99.90;;;;;;5031971;28;20515;-76
2023/06/26 10:29:55;;;;;;;2.95;1.95;;;25.50;99.90;;;;;;5029485;28;20037;-77
2023/06/26 10:32:24;;;;;;;2.67;2.10;;;25.90;99.90;;;;;;5026778;28;20041;-77
2023/06/26 10:34:51;;;;;;;3.75;2.13;;;25.30;99.90;;;;;;5047779;28;20045;-73
2023/06/26 10:37:16;;;;;;;3.67;2.20;;;25.40;88.20;;;;;;5048981;28;20420;-72
2023/06/26 10:39:50;;;;;;;5.38;2.20;;;25.00;89.80;;;;;;5031446;28;20045;-73
2023/06/26 10:42:18;;;;;;;3.83;2.10;;;24.90;79.40;;;;;;5053111;28;20401;-74
2023/06/26 10:44:46;;;;;;;3.25;2.20;;;24.50;64.40;;;;;;5047978;28;20079;-73
2023/06/26 10:47:31;;;;;;;4.32;2.38;;;24.80;85.70;;;;;;5031898;28;20045;-73
2023/06/26 10:50:15;;;;;;;4.90;2.63;;;24.20;91.20;;;;;;5041184;28;20124;-77
2023/06/26 10:52:41;;;;;;;2.95;2.20;;;23.70;99.90;;;;;;5032073;28;20103;-75
2023/06/26 10:55:09;;;;;;;3.15;2.13;;;24.40;94.30;;;;;;5015844;28;20036;-75
2023/06/26 10:57:36;;;;;;;4.15;2.53;;;24.70;84.10;;;;;;5045782;28;20033;-77
2023/06/26 11:00:10;;;;;;;4.88;2.28;;;24.80;72.60;;;;;;5050428;28;20106;-74
2023/06/26 11:02:50;;;;;;;;;;;24.20;48.40;;;;;;5052112;28;20111;-75
2023/06/26 11:05:32;;;;;;;3.03;2.15;;;24.10;62.70;;;;;;5049728;28;19939;-73
2023/06/26 11:08:19;;;;;;;3.50;2.30;;;25.10;49.00;;;;;;5050085;28;20354;-73
2023/06/26 11:10:50;;;;;;;4.55;2.80;;;25.00;52.50;;;;;;5046037;28;20040;-73
2023/06/26 11:13:18;;;;;;;4.07;2.42;;;24.70;78.90;;;;;;5040069;28;20042;-73
2023/06/26 11:15:46;;;;;;;4.28;2.40;;;25.10;64.10;;;;;;5024345;28;20439;-76
2023/06/26 11:18:13;;;;;;;3.88;2.30;;;25.90;49.90;;;;;;5020399;28;20037;-76
2023/06/26 11:20:39;;;;;;;4.07;2.40;;;25.90;38.40;;;;;;5043367;28;20064;-71
2023/06/26 11:23:08;;;;;;;4.82;2.20;;;26.10;22.40;;;;;;5047930;28;20114;-74
2023/06/26 11:25:38;;;;;;;4.30;2.00;;;24.80;25.30;;;;;;5000015;28;20214;-74
2023/06/26 11:28:05;;;;;;;5.18;1.90;;;25.10;8.10;;;;;;5046722;28;20047;-75
2023/06/26 11:30:31;;;;;;;4.40;2.38;;;25.70;14.70;;;;;;5031097;28;20041;-75
2023/06/26 11:33:05;;;;;;;3.97;2.17;;;25.50;1.00;;;;;;5047636;28;20032;-76
2023/06/26 11:35:30;;;;;;;4.65;1.90;;;24.70;11.00;;;;;;5030927;28;20437;-75
2023/06/26 11:38:00;;;;;;;11.68;2.00;;;24.90;27.70;;;;;;4988055;28;20128;-75
2023/06/26 11:40:31;;;;;;;3.35;1.88;;;23.80;29.40;;;;;;5047534;28;20045;-76
2023/06/26 11:42:59;;;;;;;2.70;1.58;;;23.90;41.50;;;;;;5055430;28;20110;-74
2023/06/26 11:45:24;;;;;;;4.68;1.77;;;25.00;23.80;;;;;;5031195;28;20085;-73
2023/06/26 11:47:51;;;;;;;4.43;2.05;;;25.40;10.90;;;;;;5046365;28;20084;-75
2023/06/26 11:50:19;;;;;;;3.30;1.80;;;26.10;1.00;;;;;;5030804;28;20374;-74
2023/06/26 11:52:45;;;;;;;3.95;1.60;;;26.10;1.00;;;;;;5047055;28;20048;-73
2023/06/26 11:55:11;;;;;;;5.28;1.98;;;26.00;1.00;;;;;;5023810;28;20048;-74
2023/06/26 11:57:37;;;;;;;5.90;1.65;;;25.00;1.00;;;;;;5046787;28;20069;-76
2023/06/26 12:00:16;;;;;;;5.38;1.80;;;24.10;7.00;;;;;;5025686;28;20537;-75
2023/06/26 12:02:44;;;;;;;4.80;2.00;;;24.70;9.50;;;;;;5030700;28;20048;-75
2023/06/26 12:05:11;;;;;;;4.10;1.60;;;25.00;1.00;;;;;;5046592;28;20037;-73
2023/06/26 12:07:37;;;;;;;5.30;1.55;;;25.00;1.00;;;;;;5014435;28;20044;-73
2023/06/26 12:10:04;;;;;;;5.05;1.88;;;24.60;1.00;;;;;;5030597;28;20037;-75
2023/06/26 12:12:31;;;;;;;3.97;1.52;;;24.40;1.00;;;;;;5044490;28;21935;-75
2023/06/26 12:14:57;;;;;;;3.53;1.52;;;24.60;1.00;;;;;;5026180;28;20095;-75
2023/06/26 12:17:26;;;;;;;4.18;1.80;;;24.90;1.00;;;;;;5047352;28;20120;-74
2023/06/26 12:19:52;;;;;;;12.13;2.17;;;25.10;1.00;;;;;;5046944;28;20106;-76
2023/06/26 12:22:19;;;;;;;5.68;1.90;;;24.80;1.00;;;;;;5013700;28;20056;-74
2023/06/26 12:24:46;;;;;;;3.28;1.75;;;24.60;1.00;;;;;;5029162;28;20792;-74
2023/06/26 12:27:14;;;;;;;4.57;1.70;;;24.90;1.00;;;;;;5046635;28;20412;-72
2023/06/26 12:29:46;;;;;;;5.25;1.65;;;24.70;1.00;;;;;;5051999;28;20098;-77
2023/06/26 12:32:14;;;;;;;4.10;1.50;;;24.50;1.00;;;;;;5052797;28;20055;-75
2023/06/26 12:34:40;;;;;;;5.65;1.48;;;24.70;1.00;;;;;;5029093;28;20037;-76
2023/06/26 12:37:09;;;;;;;3.70;1.70;;;25.40;1.00;;;;;;5049003;28;20041;-76
2023/06/26 12:39:48;;;;;;;4.05;2.13;;;25.30;1.00;;;;;;5041929;28;20044;-75
2023/06/26 12:42:25;;;;;;;2.85;1.48;;;25.20;1.00;;;;;;5046148;28;20052;-74
2023/06/26 12:44:52;;;;;;;5.35;1.80;;;24.30;1.00;;;;;;5043927;28;20484;-75
2023/06/26 12:47:19;;;;;;;4.57;1.85;;;23.70;1.00;;;;;;5046712;28;20044;-74